sensor_id;sensor_type;location;lat;lon;timestamp;temperature;humidity
21353;DHT22;10834;52.268;6.770;2023-05-31T00:00:09;11.00;99.90
21353;DHT22;10834;52.268;6.770;2023-05-31T00:02:55;11.00;99.90
21353;DHT22;10834;52.268;6.770;2023-05-31T00:05:41;11.00;99.90
21353;DHT22;10834;52.268;6.770;2023-05-31T00:08:27;11.00;99.90
21353;DHT22;10834;52.268;6.770;2023-05-31T00:11:13;11.00;99.90
21353;DHT22;10834;52.268;6.770;2023-05-31T00:13:59;11.00;99.90
21353;DHT22;10834;52.268;6.770;2023-05-31T00:16:45;10.90;99.90
21353;DHT22;10834;52.268;6.770;2023-05-31T00:19:32;10.90;99.90
21353;DHT22;10834;52.268;6.770;2023-05-31T00:22:18;10.90;99.90
21353;DHT22;10834;52.268;6.770;2023-05-31T00:25:04;10.90;99.90
21353;DHT22;10834;52.268;6.770;2023-05-31T00:27:50;10.90;99.90
21353;DHT22;10834;52.268;6.770;2023-05-31T00:30:37;10.80;99.90
21353;DHT22;10834;52.268;6.770;2023-05-31T00:33:23;10.80;99.90
21353;DHT22;10834;52.268;6.770;2023-05-31T00:36:09;10.80;99.90
21353;DHT22;10834;52.268;6.770;2023-05-31T00:38:55;10.80;99.90
21353;DHT22;10834;52.268;6.770;2023-05-31T00:41:41;10.80;99.90
21353;DHT22;10834;52.268;6.770;2023-05-31T00:44:27;10.70;99.90
21353;DHT22;10834;52.268;6.770;2023-05-31T00:47:13;10.70;99.90
21353;DHT22;10834;52.268;6.770;2023-05-31T00:49:59;10.70;99.90
21353;DHT22;10834;52.268;6.770;2023-05-31T00:52:46;10.70;99.90
21353;DHT22;10834;52.268;6.770;2023-05-31T00:55:34;10.70;99.90
21353;DHT22;10834;52.268;6.770;2023-05-31T00:58:22;10.60;99.90
21353;DHT22;10834;52.268;6.770;2023-05-31T01:01:10;10.60;99.90
21353;DHT22;10834;52.268;6.770;2023-05-31T01:03:56;10.60;99.90
21353;DHT22;10834;52.268;6.770;2023-05-31T01:06:43;10.60;99.90
21353;DHT22;10834;52.268;6.770;2023-05-31T01:09:29;10.60;99.90
21353;DHT22;10834;52.268;6.770;2023-05-31T01:15:26;10.60;99.90
21353;DHT22;10834;52.268;6.770;2023-05-31T01:18:37;10.50;99.90
21353;DHT22;10834;52.268;6.770;2023-05-31T01:22:06;10.50;99.90
21353;DHT22;10834;52.268;6.770;2023-05-31T01:25:06;10.50;99.90
21353;DHT22;10834;52.268;6.770;2023-05-31T01:27:58;10.50;99.90
21353;DHT22;10834;52.268;6.770;2023-05-31T01:30:46;10.50;99.90
21353;DHT22;10834;52.268;6.770;2023-05-31T01:33:35;10.50;99.90
21353;DHT22;10834;52.268;6.770;2023-05-31T01:36:22;10.40;99.90
21353;DHT22;10834;52.268;6.770;2023-05-31T01:39:09;10.50;99.90
21353;DHT22;10834;52.268;6.770;2023-05-31T01:41:56;10.40;99.90
21353;DHT22;10834;52.268;6.770;2023-05-31T01:44:43;10.40;99.90
21353;DHT22;10834;52.268;6.770;2023-05-31T01:47:30;10.40;99.90
21353;DHT22;10834;52.268;6.770;2023-05-31T01:50:18;10.30;99.90
21353;DHT22;10834;52.268;6.770;2023-05-31T01:53:05;10.30;99.90
21353;DHT22;10834;52.268;6.770;2023-05-31T01:55:52;10.30;99.90
21353;DHT22;10834;52.268;6.770;2023-05-31T01:58:40;10.30;99.90
21353;DHT22;10834;52.268;6.770;2023-05-31T02:01:28;10.20;99.90
21353;DHT22;10834;52.268;6.770;2023-05-31T02:04:18;10.20;99.90
21353;DHT22;10834;52.268;6.770;2023-05-31T02:07:05;10.20;99.90
21353;DHT22;10834;52.268;6.770;2023-05-31T02:09:51;10.20;99.90
21353;DHT22;10834;52.268;6.770;2023-05-31T02:12:37;10.20;99.90
21353;DHT22;10834;52.268;6.770;2023-05-31T02:15:24;10.20;99.90
21353;DHT22;10834;52.268;6.770;2023-05-31T02:18:10;10.10;99.90
21353;DHT22;10834;52.268;6.770;2023-05-31T02:20:56;10.10;99.90
21353;DHT22;10834;52.268;6.770;2023-05-31T02:23:42;10.10;99.90
21353;DHT22;10834;52.268;6.770;2023-05-31T02:26:28;10.10;99.90
21353;DHT22;10834;52.268;6.770;2023-05-31T02:29:15;10.10;99.90
21353;DHT22;10834;52.268;6.770;2023-05-31T02:32:01;10.10;99.90
21353;DHT22;10834;52.268;6.770;2023-05-31T02:34:47;10.10;99.90
21353;DHT22;10834;52.268;6.770;2023-05-31T02:37:33;10.10;99.90
21353;DHT22;10834;52.268;6.770;2023-05-31T02:40:20;10.10;99.90
21353;DHT22;10834;52.268;6.770;2023-05-31T02:43:06;10.10;99.90
21353;DHT22;10834;52.268;6.770;2023-05-31T02:45:52;10.10;99.90
21353;DHT22;10834;52.268;6.770;2023-05-31T02:48:38;10.10;99.90
21353;DHT22;10834;52.268;6.770;2023-05-31T02:51:24;10.00;99.90
21353;DHT22;10834;52.268;6.770;2023-05-31T02:54:10;10.00;99.90
21353;DHT22;10834;52.268;6.770;2023-05-31T02:56:56;10.00;99.90
21353;DHT22;10834;52.268;6.770;2023-05-31T02:59:46;10.00;99.90
21353;DHT22;10834;52.268;6.770;2023-05-31T03:02:32;10.00;99.90
21353;DHT22;10834;52.268;6.770;2023-05-31T03:05:19;10.00;99.90
21353;DHT22;10834;52.268;6.770;2023-05-31T03:08:05;9.90;99.90
21353;DHT22;10834;52.268;6.770;2023-05-31T03:10:51;9.90;99.90
21353;DHT22;10834;52.268;6.770;2023-05-31T03:13:37;9.90;99.90
21353;DHT22;10834;52.268;6.770;2023-05-31T03:16:23;9.90;99.90
21353;DHT22;10834;52.268;6.770;2023-05-31T03:19:10;9.90;99.90
21353;DHT22;10834;52.268;6.770;2023-05-31T03:21:58;9.90;99.90
21353;DHT22;10834;52.268;6.770;2023-05-31T03:24:44;9.90;99.90
21353;DHT22;10834;52.268;6.770;2023-05-31T03:27:31;9.90;99.90
21353;DHT22;10834;52.268;6.770;2023-05-31T03:30:17;9.90;99.90
21353;DHT22;10834;52.268;6.770;2023-05-31T03:33:03;9.90;99.90
21353;DHT22;10834;52.268;6.770;2023-05-31T03:35:49;9.90;99.90
21353;DHT22;10834;52.268;6.770;2023-05-31T03:38:35;9.90;99.90
21353;DHT22;10834;52.268;6.770;2023-05-31T03:41:21;9.90;99.90
21353;DHT22;10834;52.268;6.770;2023-05-31T03:44:07;9.90;99.90
21353;DHT22;10834;52.268;6.770;2023-05-31T03:46:53;9.80;99.90
21353;DHT22;10834;52.268;6.770;2023-05-31T03:49:39;10.00;99.90
21353;DHT22;10834;52.268;6.770;2023-05-31T03:52:26;10.10;99.90
21353;DHT22;10834;52.268;6.770;2023-05-31T03:55:12;10.20;99.90
21353;DHT22;10834;52.268;6.770;2023-05-31T03:57:59;10.30;99.90
21353;DHT22;10834;52.268;6.770;2023-05-31T04:00:45;10.40;99.90
21353;DHT22;10834;52.268;6.770;2023-05-31T04:03:32;10.50;99.90
21353;DHT22;10834;52.268;6.770;2023-05-31T04:06:18;10.60;99.90
21353;DHT22;10834;52.268;6.770;2023-05-31T04:09:04;10.60;99.90
21353;DHT22;10834;52.268;6.770;2023-05-31T04:11:50;10.80;99.90
21353;DHT22;10834;52.268;6.770;2023-05-31T04:14:36;10.90;99.90
21353;DHT22;10834;52.268;6.770;2023-05-31T04:17:22;10.90;99.90
21353;DHT22;10834;52.268;6.770;2023-05-31T04:20:09;11.10;99.90
21353;DHT22;10834;52.268;6.770;2023-05-31T04:22:55;11.10;99.90
21353;DHT22;10834;52.268;6.770;2023-05-31T04:25:41;11.20;99.90
21353;DHT22;10834;52.268;6.770;2023-05-31T04:28:30;11.30;99.90
21353;DHT22;10834;52.268;6.770;2023-05-31T04:31:17;11.40;99.90
21353;DHT22;10834;52.268;6.770;2023-05-31T04:34:03;11.50;99.90
21353;DHT22;10834;52.268;6.770;2023-05-31T04:36:50;11.50;99.90
21353;DHT22;10834;52.268;6.770;2023-05-31T04:39:36;11.60;99.90
21353;DHT22;10834;52.268;6.770;2023-05-31T04:42:26;11.70;99.90
21353;DHT22;10834;52.268;6.770;2023-05-31T04:45:12;11.80;99.90
21353;DHT22;10834;52.268;6.770;2023-05-31T04:47:58;11.80;99.90
21353;DHT22;10834;52.268;6.770;2023-05-31T04:50:45;11.90;99.90
21353;DHT22;10834;52.268;6.770;2023-05-31T04:53:33;12.00;99.90
21353;DHT22;10834;52.268;6.770;2023-05-31T04:56:19;12.10;99.90
21353;DHT22;10834;52.268;6.770;2023-05-31T04:59:05;12.20;99.90
21353;DHT22;10834;52.268;6.770;2023-05-31T05:01:53;12.30;99.90
21353;DHT22;10834;52.268;6.770;2023-05-31T05:04:39;12.40;99.90
21353;DHT22;10834;52.268;6.770;2023-05-31T05:07:25;12.50;99.90
21353;DHT22;10834;52.268;6.770;2023-05-31T05:10:11;12.60;99.90
21353;DHT22;10834;52.268;6.770;2023-05-31T05:12:57;12.70;99.90
21353;DHT22;10834;52.268;6.770;2023-05-31T05:15:43;12.80;99.90
21353;DHT22;10834;52.268;6.770;2023-05-31T05:18:30;12.90;99.90
21353;DHT22;10834;52.268;6.770;2023-05-31T05:21:17;13.00;99.90
21353;DHT22;10834;52.268;6.770;2023-05-31T05:24:03;13.20;99.90
21353;DHT22;10834;52.268;6.770;2023-05-31T05:26:49;13.30;99.90
21353;DHT22;10834;52.268;6.770;2023-05-31T05:29:35;13.40;99.90
21353;DHT22;10834;52.268;6.770;2023-05-31T05:32:21;13.40;99.90
21353;DHT22;10834;52.268;6.770;2023-05-31T05:35:07;13.50;99.90
21353;DHT22;10834;52.268;6.770;2023-05-31T05:37:54;13.70;99.90
21353;DHT22;10834;52.268;6.770;2023-05-31T05:40:41;13.80;99.90
21353;DHT22;10834;52.268;6.770;2023-05-31T05:43:27;13.90;99.90
21353;DHT22;10834;52.268;6.770;2023-05-31T05:46:14;14.10;99.90
21353;DHT22;10834;52.268;6.770;2023-05-31T05:49:01;14.00;99.90
21353;DHT22;10834;52.268;6.770;2023-05-31T05:51:47;14.00;99.90
21353;DHT22;10834;52.268;6.770;2023-05-31T05:54:34;14.00;99.90
21353;DHT22;10834;52.268;6.770;2023-05-31T05:57:20;14.00;99.90
21353;DHT22;10834;52.268;6.770;2023-05-31T06:00:07;14.00;99.90
21353;DHT22;10834;52.268;6.770;2023-05-31T06:03:01;14.00;99.90
21353;DHT22;10834;52.268;6.770;2023-05-31T06:05:47;14.10;99.90
21353;DHT22;10834;52.268;6.770;2023-05-31T06:08:33;14.10;99.90
21353;DHT22;10834;52.268;6.770;2023-05-31T06:11:19;14.20;99.90
21353;DHT22;10834;52.268;6.770;2023-05-31T06:14:05;14.40;99.90
21353;DHT22;10834;52.268;6.770;2023-05-31T06:16:51;14.80;99.90
21353;DHT22;10834;52.268;6.770;2023-05-31T06:19:37;15.10;99.90
21353;DHT22;10834;52.268;6.770;2023-05-31T06:22:24;16.90;99.90
21353;DHT22;10834;52.268;6.770;2023-05-31T06:25:10;20.90;99.90
21353;DHT22;10834;52.268;6.770;2023-05-31T06:27:56;24.40;86.80
21353;DHT22;10834;52.268;6.770;2023-05-31T06:30:43;26.90;60.80
21353;DHT22;10834;52.268;6.770;2023-05-31T06:33:29;28.30;53.50
21353;DHT22;10834;52.268;6.770;2023-05-31T06:36:15;29.50;49.80
21353;DHT22;10834;52.268;6.770;2023-05-31T06:39:01;30.90;46.50
21353;DHT22;10834;52.268;6.770;2023-05-31T06:41:47;32.50;43.30
21353;DHT22;10834;52.268;6.770;2023-05-31T06:44:33;34.10;41.20
21353;DHT22;10834;52.268;6.770;2023-05-31T06:47:19;35.50;39.00
21353;DHT22;10834;52.268;6.770;2023-05-31T06:50:05;36.90;37.30
21353;DHT22;10834;52.268;6.770;2023-05-31T06:52:51;38.10;35.20
21353;DHT22;10834;52.268;6.770;2023-05-31T06:55:38;39.20;33.50
21353;DHT22;10834;52.268;6.770;2023-05-31T06:58:25;39.90;32.00
21353;DHT22;10834;52.268;6.770;2023-05-31T07:01:14;40.90;30.80
21353;DHT22;10834;52.268;6.770;2023-05-31T07:04:00;41.60;29.90
21353;DHT22;10834;52.268;6.770;2023-05-31T07:06:46;42.30;29.20
21353;DHT22;10834;52.268;6.770;2023-05-31T07:09:32;42.90;28.90
21353;DHT22;10834;52.268;6.770;2023-05-31T07:12:18;43.40;28.30
21353;DHT22;10834;52.268;6.770;2023-05-31T07:15:05;43.80;28.00
21353;DHT22;10834;52.268;6.770;2023-05-31T07:17:51;44.30;27.80
21353;DHT22;10834;52.268;6.770;2023-05-31T07:20:37;44.70;27.30
21353;DHT22;10834;52.268;6.770;2023-05-31T07:23:23;45.00;26.90
21353;DHT22;10834;52.268;6.770;2023-05-31T07:26:10;45.50;26.80
21353;DHT22;10834;52.268;6.770;2023-05-31T07:28:56;45.70;26.60
21353;DHT22;10834;52.268;6.770;2023-05-31T07:31:42;46.00;26.20
21353;DHT22;10834;52.268;6.770;2023-05-31T07:34:28;46.30;25.90
21353;DHT22;10834;52.268;6.770;2023-05-31T07:37:14;46.50;25.90
21353;DHT22;10834;52.268;6.770;2023-05-31T07:40:00;46.80;25.60
21353;DHT22;10834;52.268;6.770;2023-05-31T07:42:46;47.10;25.60
21353;DHT22;10834;52.268;6.770;2023-05-31T07:45:32;47.30;25.30
21353;DHT22;10834;52.268;6.770;2023-05-31T07:48:19;47.50;25.30
21353;DHT22;10834;52.268;6.770;2023-05-31T07:51:05;47.70;25.10
21353;DHT22;10834;52.268;6.770;2023-05-31T07:53:51;47.70;24.80
21353;DHT22;10834;52.268;6.770;2023-05-31T07:56:38;47.80;24.90
21353;DHT22;10834;52.268;6.770;2023-05-31T07:59:24;47.90;25.10
21353;DHT22;10834;52.268;6.770;2023-05-31T08:02:10;48.00;24.90
21353;DHT22;10834;52.268;6.770;2023-05-31T08:04:56;48.30;24.80
21353;DHT22;10834;52.268;6.770;2023-05-31T08:07:48;48.50;24.60
21353;DHT22;10834;52.268;6.770;2023-05-31T08:10:34;48.40;24.30
21353;DHT22;10834;52.268;6.770;2023-05-31T08:13:21;48.40;24.50
21353;DHT22;10834;52.268;6.770;2023-05-31T08:16:07;48.60;24.50
21353;DHT22;10834;52.268;6.770;2023-05-31T08:18:53;48.80;24.40
21353;DHT22;10834;52.268;6.770;2023-05-31T08:21:39;48.80;24.20
21353;DHT22;10834;52.268;6.770;2023-05-31T08:24:25;49.00;24.40
21353;DHT22;10834;52.268;6.770;2023-05-31T08:27:11;49.00;24.20
21353;DHT22;10834;52.268;6.770;2023-05-31T08:29:57;49.10;24.30
21353;DHT22;10834;52.268;6.770;2023-05-31T08:32:43;49.20;24.30
21353;DHT22;10834;52.268;6.770;2023-05-31T08:35:29;49.10;24.00
21353;DHT22;10834;52.268;6.770;2023-05-31T08:38:16;49.20;24.10
21353;DHT22;10834;52.268;6.770;2023-05-31T08:41:03;49.20;24.10
21353;DHT22;10834;52.268;6.770;2023-05-31T08:43:49;49.30;24.00
21353;DHT22;10834;52.268;6.770;2023-05-31T08:46:36;49.40;23.80
21353;DHT22;10834;52.268;6.770;2023-05-31T08:49:22;49.30;23.90
21353;DHT22;10834;52.268;6.770;2023-05-31T08:52:09;49.30;24.00
21353;DHT22;10834;52.268;6.770;2023-05-31T08:54:56;49.30;23.80
21353;DHT22;10834;52.268;6.770;2023-05-31T08:57:43;49.10;23.60
21353;DHT22;10834;52.268;6.770;2023-05-31T09:00:29;48.80;23.80
21353;DHT22;10834;52.268;6.770;2023-05-31T09:03:16;48.60;23.80
21353;DHT22;10834;52.268;6.770;2023-05-31T09:06:02;48.60;23.90
21353;DHT22;10834;52.268;6.770;2023-05-31T09:08:48;48.60;24.00
21353;DHT22;10834;52.268;6.770;2023-05-31T09:11:36;48.40;24.30
21353;DHT22;10834;52.268;6.770;2023-05-31T09:14:23;48.30;24.10
21353;DHT22;10834;52.268;6.770;2023-05-31T09:17:10;48.40;23.90
21353;DHT22;10834;52.268;6.770;2023-05-31T09:19:56;48.30;24.00
21353;DHT22;10834;52.268;6.770;2023-05-31T09:22:48;48.30;24.50
21353;DHT22;10834;52.268;6.770;2023-05-31T09:25:47;48.20;24.10
21353;DHT22;10834;52.268;6.770;2023-05-31T09:28:34;48.30;24.00
21353;DHT22;10834;52.268;6.770;2023-05-31T09:31:21;48.30;24.10
21353;DHT22;10834;52.268;6.770;2023-05-31T09:34:29;48.20;24.00
21353;DHT22;10834;52.268;6.770;2023-05-31T09:37:22;48.00;23.90
21353;DHT22;10834;52.268;6.770;2023-05-31T09:40:30;48.00;24.00
21353;DHT22;10834;52.268;6.770;2023-05-31T09:43:17;47.80;23.80
21353;DHT22;10834;52.268;6.770;2023-05-31T09:46:03;47.80;23.90
21353;DHT22;10834;52.268;6.770;2023-05-31T09:49:07;47.70;23.90
21353;DHT22;10834;52.268;6.770;2023-05-31T09:51:55;47.50;24.10
21353;DHT22;10834;52.268;6.770;2023-05-31T09:54:42;47.40;24.50
21353;DHT22;10834;52.268;6.770;2023-05-31T09:57:34;47.40;24.10
21353;DHT22;10834;52.268;6.770;2023-05-31T10:00:26;47.10;24.30
21353;DHT22;10834;52.268;6.770;2023-05-31T10:03:12;47.00;24.10
21353;DHT22;10834;52.268;6.770;2023-05-31T10:05:59;47.00;24.00
21353;DHT22;10834;52.268;6.770;2023-05-31T10:08:46;46.80;24.30
21353;DHT22;10834;52.268;6.770;2023-05-31T10:11:33;46.80;24.50
21353;DHT22;10834;52.268;6.770;2023-05-31T10:14:31;46.50;23.80
21353;DHT22;10834;52.268;6.770;2023-05-31T10:17:20;46.00;24.60
21353;DHT22;10834;52.268;6.770;2023-05-31T10:20:11;45.90;24.80
21353;DHT22;10834;52.268;6.770;2023-05-31T10:23:01;45.80;24.60
21353;DHT22;10834;52.268;6.770;2023-05-31T10:29:14;45.10;23.90
21353;DHT22;10834;52.268;6.770;2023-05-31T10:32:17;44.70;25.10
21353;DHT22;10834;52.268;6.770;2023-05-31T10:35:05;44.50;24.80
21353;DHT22;10834;52.268;6.770;2023-05-31T10:37:53;43.80;25.30
21353;DHT22;10834;52.268;6.770;2023-05-31T10:40:56;41.70;25.80
21353;DHT22;10834;52.268;6.770;2023-05-31T10:43:58;39.70;27.60
21353;DHT22;10834;52.268;6.770;2023-05-31T10:46:47;38.10;28.20
21353;DHT22;10834;52.268;6.770;2023-05-31T10:49:35;37.10;29.30
21353;DHT22;10834;52.268;6.770;2023-05-31T10:52:22;36.60;29.90
21353;DHT22;10834;52.268;6.770;2023-05-31T10:58:01;35.80;30.00
21353;DHT22;10834;52.268;6.770;2023-05-31T11:00:47;35.50;30.30
21353;DHT22;10834;52.268;6.770;2023-05-31T11:03:35;35.40;31.00
21353;DHT22;10834;52.268;6.770;2023-05-31T11:06:27;35.30;31.50
21353;DHT22;10834;52.268;6.770;2023-05-31T11:09:14;35.20;30.90
21353;DHT22;10834;52.268;6.770;2023-05-31T11:12:03;35.10;31.50
21353;DHT22;10834;52.268;6.770;2023-05-31T11:14:59;34.90;31.00
21353;DHT22;10834;52.268;6.770;2023-05-31T11:17:54;34.90;32.50
21353;DHT22;10834;52.268;6.770;2023-05-31T11:20:40;34.80;32.40
21353;DHT22;10834;52.268;6.770;2023-05-31T11:23:29;34.90;31.40
21353;DHT22;10834;52.268;6.770;2023-05-31T11:26:17;34.90;30.60
21353;DHT22;10834;52.268;6.770;2023-05-31T11:29:04;34.80;31.60
21353;DHT22;10834;52.268;6.770;2023-05-31T11:34:52;34.20;32.00
21353;DHT22;10834;52.268;6.770;2023-05-31T11:37:42;33.80;33.20
21353;DHT22;10834;52.268;6.770;2023-05-31T11:40:29;33.90;33.20
21353;DHT22;10834;52.268;6.770;2023-05-31T11:43:20;33.60;33.10
21353;DHT22;10834;52.268;6.770;2023-05-31T11:46:11;33.40;33.00
21353;DHT22;10834;52.268;6.770;2023-05-31T11:48:57;33.30;33.90
21353;DHT22;10834;52.268;6.770;2023-05-31T11:51:43;33.40;34.40
21353;DHT22;10834;52.268;6.770;2023-05-31T11:54:31;33.50;33.80
21353;DHT22;10834;52.268;6.770;2023-05-31T11:57:18;33.30;33.40
21353;DHT22;10834;52.268;6.770;2023-05-31T12:00:05;32.90;33.00
21353;DHT22;10834;52.268;6.770;2023-05-31T12:02:57;32.80;34.30
21353;DHT22;10834;52.268;6.770;2023-05-31T12:05:56;32.80;34.60
21353;DHT22;10834;52.268;6.770;2023-05-31T12:08:43;32.50;33.70
21353;DHT22;10834;52.268;6.770;2023-05-31T12:11:29;32.40;33.20
21353;DHT22;10834;52.268;6.770;2023-05-31T12:14:15;32.20;34.20
21353;DHT22;10834;52.268;6.770;2023-05-31T12:17:05;32.20;35.00
21353;DHT22;10834;52.268;6.770;2023-05-31T12:19:51;32.20;34.20
21353;DHT22;10834;52.268;6.770;2023-05-31T12:22:38;32.10;34.30
21353;DHT22;10834;52.268;6.770;2023-05-31T12:25:27;32.00;34.20
21353;DHT22;10834;52.268;6.770;2023-05-31T12:28:15;31.90;34.70
21353;DHT22;10834;52.268;6.770;2023-05-31T12:31:01;32.00;35.40
21353;DHT22;10834;52.268;6.770;2023-05-31T12:34:11;32.00;35.20
21353;DHT22;10834;52.268;6.770;2023-05-31T12:37:06;31.90;35.00
21353;DHT22;10834;52.268;6.770;2023-05-31T12:40:11;31.80;35.00
21353;DHT22;10834;52.268;6.770;2023-05-31T12:43:00;31.70;35.50
21353;DHT22;10834;52.268;6.770;2023-05-31T12:45:46;31.60;35.20
21353;DHT22;10834;52.268;6.770;2023-05-31T12:48:32;31.50;35.30
21353;DHT22;10834;52.268;6.770;2023-05-31T12:51:22;31.40;35.40
21353;DHT22;10834;52.268;6.770;2023-05-31T12:54:12;31.40;36.00
21353;DHT22;10834;52.268;6.770;2023-05-31T12:57:00;31.30;35.80
21353;DHT22;10834;52.268;6.770;2023-05-31T12:59:57;31.20;36.20
21353;DHT22;10834;52.268;6.770;2023-05-31T13:02:43;31.10;36.20
21353;DHT22;10834;52.268;6.770;2023-05-31T13:05:30;31.00;36.00
21353;DHT22;10834;52.268;6.770;2023-05-31T13:08:16;31.00;36.00
21353;DHT22;10834;52.268;6.770;2023-05-31T13:11:02;31.00;36.30
21353;DHT22;10834;52.268;6.770;2023-05-31T13:13:48;30.90;35.70
21353;DHT22;10834;52.268;6.770;2023-05-31T13:16:35;30.90;36.50
21353;DHT22;10834;52.268;6.770;2023-05-31T13:19:21;30.80;36.30
21353;DHT22;10834;52.268;6.770;2023-05-31T13:22:07;30.80;36.40
21353;DHT22;10834;52.268;6.770;2023-05-31T13:24:53;30.70;36.50
21353;DHT22;10834;52.268;6.770;2023-05-31T13:27:39;30.50;36.20
21353;DHT22;10834;52.268;6.770;2023-05-31T13:30:27;30.40;36.40
21353;DHT22;10834;52.268;6.770;2023-05-31T13:33:13;30.20;37.00
21353;DHT22;10834;52.268;6.770;2023-05-31T13:35:59;30.20;37.10
21353;DHT22;10834;52.268;6.770;2023-05-31T13:38:46;30.10;37.30
21353;DHT22;10834;52.268;6.770;2023-05-31T13:41:32;30.00;36.80
21353;DHT22;10834;52.268;6.770;2023-05-31T13:44:19;29.80;37.00
21353;DHT22;10834;52.268;6.770;2023-05-31T13:47:05;29.70;36.80
21353;DHT22;10834;52.268;6.770;2023-05-31T13:49:51;29.60;37.00
21353;DHT22;10834;52.268;6.770;2023-05-31T13:52:37;29.50;37.70
21353;DHT22;10834;52.268;6.770;2023-05-31T13:55:23;29.50;38.00
21353;DHT22;10834;52.268;6.770;2023-05-31T13:58:09;29.40;37.30
21353;DHT22;10834;52.268;6.770;2023-05-31T14:00:55;29.20;37.90
21353;DHT22;10834;52.268;6.770;2023-05-31T14:03:41;29.10;38.30
21353;DHT22;10834;52.268;6.770;2023-05-31T14:06:27;29.00;38.50
21353;DHT22;10834;52.268;6.770;2023-05-31T14:09:13;28.90;38.80
21353;DHT22;10834;52.268;6.770;2023-05-31T14:12:00;28.80;39.00
21353;DHT22;10834;52.268;6.770;2023-05-31T14:14:46;28.70;38.40
21353;DHT22;10834;52.268;6.770;2023-05-31T14:17:33;28.60;38.80
21353;DHT22;10834;52.268;6.770;2023-05-31T14:20:19;28.40;38.80
21353;DHT22;10834;52.268;6.770;2023-05-31T14:23:05;28.30;39.30
21353;DHT22;10834;52.268;6.770;2023-05-31T14:25:51;28.20;39.30
21353;DHT22;10834;52.268;6.770;2023-05-31T14:28:37;28.10;39.60
21353;DHT22;10834;52.268;6.770;2023-05-31T14:31:23;28.00;40.40
21353;DHT22;10834;52.268;6.770;2023-05-31T14:34:09;27.80;40.50
21353;DHT22;10834;52.268;6.770;2023-05-31T14:36:55;27.70;40.20
21353;DHT22;10834;52.268;6.770;2023-05-31T14:39:42;27.60;40.30
21353;DHT22;10834;52.268;6.770;2023-05-31T14:42:29;27.50;40.20
21353;DHT22;10834;52.268;6.770;2023-05-31T14:45:15;27.40;40.70
21353;DHT22;10834;52.268;6.770;2023-05-31T14:48:03;27.30;41.10
21353;DHT22;10834;52.268;6.770;2023-05-31T14:50:49;27.30;40.70
21353;DHT22;10834;52.268;6.770;2023-05-31T14:53:35;27.20;41.00
21353;DHT22;10834;52.268;6.770;2023-05-31T14:56:21;27.10;41.50
21353;DHT22;10834;52.268;6.770;2023-05-31T14:59:07;27.00;41.60
21353;DHT22;10834;52.268;6.770;2023-05-31T15:01:54;26.90;41.90
21353;DHT22;10834;52.268;6.770;2023-05-31T15:04:43;26.80;42.10
21353;DHT22;10834;52.268;6.770;2023-05-31T15:07:29;26.70;42.40
21353;DHT22;10834;52.268;6.770;2023-05-31T15:10:15;26.60;42.70
21353;DHT22;10834;52.268;6.770;2023-05-31T15:13:01;26.60;42.70
21353;DHT22;10834;52.268;6.770;2023-05-31T15:15:48;26.50;42.70
21353;DHT22;10834;52.268;6.770;2023-05-31T15:18:34;26.40;43.00
21353;DHT22;10834;52.268;6.770;2023-05-31T15:21:20;26.40;43.70
21353;DHT22;10834;52.268;6.770;2023-05-31T15:24:06;26.40;44.20
21353;DHT22;10834;52.268;6.770;2023-05-31T15:26:52;26.30;44.80
21353;DHT22;10834;52.268;6.770;2023-05-31T15:29:39;26.20;45.30
21353;DHT22;10834;52.268;6.770;2023-05-31T15:32:25;26.10;45.50
21353;DHT22;10834;52.268;6.770;2023-05-31T15:35:11;25.90;45.80
21353;DHT22;10834;52.268;6.770;2023-05-31T15:37:57;25.80;46.10
21353;DHT22;10834;52.268;6.770;2023-05-31T15:40:44;25.80;47.00
21353;DHT22;10834;52.268;6.770;2023-05-31T15:43:30;25.70;46.50
21353;DHT22;10834;52.268;6.770;2023-05-31T15:46:16;25.60;46.90
21353;DHT22;10834;52.268;6.770;2023-05-31T15:49:02;25.50;47.00
21353;DHT22;10834;52.268;6.770;2023-05-31T15:51:48;25.40;47.20
21353;DHT22;10834;52.268;6.770;2023-05-31T15:54:34;25.30;47.70
21353;DHT22;10834;52.268;6.770;2023-05-31T15:57:21;25.20;48.00
21353;DHT22;10834;52.268;6.770;2023-05-31T16:00:07;25.00;48.80
21353;DHT22;10834;52.268;6.770;2023-05-31T16:02:54;24.90;48.90
21353;DHT22;10834;52.268;6.770;2023-05-31T16:05:40;24.80;49.10
21353;DHT22;10834;52.268;6.770;2023-05-31T16:08:26;24.70;49.00
21353;DHT22;10834;52.268;6.770;2023-05-31T16:11:12;24.60;49.30
21353;DHT22;10834;52.268;6.770;2023-05-31T16:13:58;24.50;49.30
21353;DHT22;10834;52.268;6.770;2023-05-31T16:16:44;24.30;50.00
21353;DHT22;10834;52.268;6.770;2023-05-31T16:19:31;24.20;50.20
21353;DHT22;10834;52.268;6.770;2023-05-31T16:22:17;24.00;50.50
21353;DHT22;10834;52.268;6.770;2023-05-31T16:25:04;23.90;50.70
21353;DHT22;10834;52.268;6.770;2023-05-31T16:27:53;23.80;51.00
21353;DHT22;10834;52.268;6.770;2023-05-31T16:30:39;23.80;51.20
21353;DHT22;10834;52.268;6.770;2023-05-31T16:33:25;23.70;51.30
21353;DHT22;10834;52.268;6.770;2023-05-31T16:36:11;23.60;51.70
21353;DHT22;10834;52.268;6.770;2023-05-31T16:38:57;23.50;51.60
21353;DHT22;10834;52.268;6.770;2023-05-31T16:41:46;23.40;51.70
21353;DHT22;10834;52.268;6.770;2023-05-31T16:44:32;23.30;51.30
21353;DHT22;10834;52.268;6.770;2023-05-31T16:47:20;23.20;51.40
21353;DHT22;10834;52.268;6.770;2023-05-31T16:50:07;23.10;51.50
21353;DHT22;10834;52.268;6.770;2023-05-31T16:52:53;23.00;52.10
21353;DHT22;10834;52.268;6.770;2023-05-31T16:55:39;22.90;51.80
21353;DHT22;10834;52.268;6.770;2023-05-31T16:58:25;22.80;52.20
21353;DHT22;10834;52.268;6.770;2023-05-31T17:01:11;22.80;52.20
21353;DHT22;10834;52.268;6.770;2023-05-31T17:03:57;22.70;52.10
21353;DHT22;10834;52.268;6.770;2023-05-31T17:06:43;22.60;52.10
21353;DHT22;10834;52.268;6.770;2023-05-31T17:09:29;22.50;52.60
21353;DHT22;10834;52.268;6.770;2023-05-31T17:12:16;22.40;52.80
21353;DHT22;10834;52.268;6.770;2023-05-31T17:15:02;22.30;52.90
21353;DHT22;10834;52.268;6.770;2023-05-31T17:17:49;22.20;53.50
21353;DHT22;10834;52.268;6.770;2023-05-31T17:20:35;22.10;53.60
21353;DHT22;10834;52.268;6.770;2023-05-31T17:23:22;22.00;54.00
21353;DHT22;10834;52.268;6.770;2023-05-31T17:26:08;22.00;54.50
21353;DHT22;10834;52.268;6.770;2023-05-31T17:28:54;21.90;54.80
21353;DHT22;10834;52.268;6.770;2023-05-31T17:31:40;21.80;54.50
21353;DHT22;10834;52.268;6.770;2023-05-31T17:34:26;21.80;54.40
21353;DHT22;10834;52.268;6.770;2023-05-31T17:37:12;21.70;54.20
21353;DHT22;10834;52.268;6.770;2023-05-31T17:39:58;21.70;54.90
21353;DHT22;10834;52.268;6.770;2023-05-31T17:42:44;21.60;55.40
21353;DHT22;10834;52.268;6.770;2023-05-31T17:45:34;21.50;56.00
21353;DHT22;10834;52.268;6.770;2023-05-31T17:48:21;21.40;55.20
21353;DHT22;10834;52.268;6.770;2023-05-31T17:51:09;21.40;55.60